createdAt,value
2019-05-06T00:01:36.133Z,4.60
2019-05-06T00:04:05.291Z,5.80
2019-05-06T00:06:34.871Z,6.20
2019-05-06T00:09:05.598Z,5.03
2019-05-06T00:11:34.902Z,5.70
2019-05-06T00:14:04.253Z,6.00
2019-05-06T00:16:34.652Z,6.73
2019-05-06T00:19:04.986Z,6.60
2019-05-06T00:21:35.561Z,6.33
2019-05-06T00:24:05.119Z,9.00
2019-05-06T00:26:57.241Z,8.97
2019-05-06T00:29:29.024Z,7.13
2019-05-06T00:31:58.163Z,7.57
2019-05-06T00:34:27.312Z,6.20
2019-05-06T00:36:56.538Z,6.47
2019-05-06T00:39:38.642Z,8.87
2019-05-06T00:42:42.035Z,6.20
2019-05-06T00:45:13.551Z,6.90
2019-05-06T00:47:44.339Z,5.87
2019-05-06T00:50:14.338Z,7.40
2019-05-06T00:52:44.746Z,7.30
2019-05-06T00:55:13.893Z,7.23
2019-05-06T00:57:45.925Z,5.90
2019-05-06T01:00:24.260Z,8.90
2019-05-06T01:02:54.251Z,6.63
2019-05-06T01:05:24.438Z,8.10
2019-05-06T01:07:54.979Z,6.40
2019-05-06T01:10:24.529Z,6.00
2019-05-06T01:13:24.058Z,6.43
2019-05-06T01:15:54.674Z,6.33
2019-05-06T01:18:24.505Z,6.60
2019-05-06T01:21:09.909Z,7.90
2019-05-06T01:23:41.242Z,7.07
2019-05-06T01:26:10.622Z,4.70
2019-05-06T01:28:39.914Z,5.10
2019-05-06T01:31:09.053Z,7.83
2019-05-06T01:33:38.239Z,5.73
2019-05-06T01:36:07.466Z,7.50
2019-05-06T01:38:44.376Z,5.57
2019-05-06T01:41:24.361Z,6.10
2019-05-06T01:43:54.598Z,6.73
2019-05-06T01:46:24.538Z,5.83
2019-05-06T01:48:53.785Z,4.97
2019-05-06T01:51:24.147Z,5.53
2019-05-06T01:53:54.380Z,5.77
2019-05-06T01:56:24.166Z,5.93
2019-05-06T01:58:53.734Z,7.33
2019-05-06T02:01:24.875Z,5.50
2019-05-06T02:03:53.954Z,5.43
2019-05-06T02:06:24.983Z,7.90
2019-05-06T02:08:54.288Z,6.70
2019-05-06T02:11:24.109Z,6.57
2019-05-06T02:13:53.860Z,10.03
2019-05-06T02:16:24.086Z,7.77
2019-05-06T02:18:54.080Z,9.10
2019-05-06T02:21:41.094Z,8.17
2019-05-06T02:24:14.837Z,9.20
2019-05-06T02:26:44.105Z,8.03
2019-05-06T02:29:15.795Z,7.57
2019-05-06T02:32:17.364Z,9.97
2019-05-06T02:34:47.523Z,12.43
2019-05-06T02:37:25.162Z,11.00
2019-05-06T02:39:53.514Z,8.80
2019-05-06T02:42:23.869Z,14.47
2019-05-06T02:44:54.359Z,11.80
2019-05-06T02:47:45.632Z,9.63
2019-05-06T02:50:17.394Z,10.43
2019-05-06T02:52:46.653Z,8.63
2019-05-06T02:55:15.859Z,10.50
2019-05-06T02:57:45.004Z,11.73
2019-05-06T03:00:16.414Z,13.40
2019-05-06T03:02:48.203Z,9.23
2019-05-06T03:05:16.588Z,12.00
2019-05-06T03:07:45.792Z,10.43
2019-05-06T03:10:16.285Z,12.83
2019-05-06T03:12:45.418Z,11.07
2019-05-06T03:15:16.717Z,12.70
2019-05-06T03:17:46.200Z,9.60
2019-05-06T03:20:26.006Z,11.40
2019-05-06T03:23:04.017Z,10.23
2019-05-06T03:25:35.235Z,12.37
2019-05-06T03:28:06.437Z,9.57
2019-05-06T03:30:36.607Z,13.37
2019-05-06T03:33:44.622Z,9.43
2019-05-06T03:35:56.104Z,14.13
2019-05-06T03:38:07.979Z,10.23
2019-05-06T03:40:41.675Z,8.50
2019-05-06T03:43:07.979Z,7.53
2019-05-06T03:45:46.997Z,8.90
2019-05-06T03:48:23.789Z,12.63
2019-05-06T03:50:55.594Z,6.90
2019-05-06T03:53:24.063Z,7.67
2019-05-06T03:55:54.305Z,8.67
2019-05-06T03:58:26.887Z,11.73
2019-05-06T04:00:58.629Z,10.93
2019-05-06T04:03:42.677Z,10.17
2019-05-06T04:05:58.876Z,11.80
2019-05-06T04:08:28.652Z,9.10
2019-05-06T04:10:57.896Z,12.73
2019-05-06T04:13:27.232Z,13.47
2019-05-06T04:16:23.116Z,10.03
2019-05-06T04:19:00.216Z,13.70
2019-05-06T04:21:43.673Z,15.63
2019-05-06T04:24:22.879Z,11.60
2019-05-06T04:27:04.590Z,16.60
2019-05-06T04:29:35.588Z,11.10
2019-05-06T04:32:05.364Z,12.03
2019-05-06T04:34:34.964Z,14.90
2019-05-06T04:37:04.112Z,11.17
2019-05-06T04:39:33.342Z,16.73
2019-05-06T04:42:03.520Z,9.53
2019-05-06T04:44:33.186Z,9.73
2019-05-06T04:47:05.267Z,8.50
2019-05-06T04:49:34.148Z,9.30
2019-05-06T04:52:03.764Z,11.87
2019-05-06T04:54:33.627Z,9.83
2019-05-06T04:57:05.055Z,8.07
2019-05-06T04:59:43.270Z,11.87
2019-05-06T05:02:15.031Z,12.23
2019-05-06T05:04:44.375Z,13.03
2019-05-06T05:07:13.783Z,15.60
2019-05-06T05:09:43.363Z,11.73
2019-05-06T05:12:22.675Z,16.97
2019-05-06T05:14:58.387Z,17.50
2019-05-06T05:17:38.239Z,13.40
2019-05-06T05:20:08.011Z,12.60
2019-05-06T05:22:37.192Z,17.80
2019-05-06T05:25:06.675Z,12.97
2019-05-06T05:27:35.909Z,12.53
2019-05-06T05:30:05.735Z,17.23
2019-05-06T05:32:34.982Z,13.97
2019-05-06T05:35:04.487Z,21.00
2019-05-06T05:37:33.756Z,17.03
2019-05-06T05:40:03.265Z,13.50
2019-05-06T05:42:39.661Z,17.73
2019-05-06T05:45:09.430Z,11.97
2019-05-06T05:47:38.824Z,14.53
2019-05-06T05:50:14.483Z,15.40
2019-05-06T05:52:43.689Z,13.80
2019-05-06T05:55:13.411Z,17.53
2019-05-06T05:57:43.300Z,14.10
2019-05-06T06:00:13.834Z,15.87
2019-05-06T06:02:43.830Z,17.13
2019-05-06T06:05:13.136Z,19.57
2019-05-06T06:07:42.647Z,21.70
2019-05-06T06:10:22.566Z,12.50
2019-05-06T06:12:52.913Z,17.60
2019-05-06T06:15:44.101Z,12.57
2019-05-06T06:18:22.417Z,15.77
2019-05-06T06:21:18.737Z,15.23
2019-05-06T06:23:42.969Z,17.33
2019-05-06T06:26:12.255Z,17.70
2019-05-06T06:28:42.585Z,17.70
2019-05-06T06:31:26.104Z,17.50
2019-05-06T06:34:01.924Z,14.70
2019-05-06T06:36:38.174Z,16.07
2019-05-06T06:39:20.222Z,17.70
2019-05-06T06:41:49.482Z,18.03
2019-05-06T06:44:22.179Z,15.03
2019-05-06T06:46:52.463Z,13.20
2019-05-06T06:49:22.274Z,10.97
2019-05-06T06:51:53.166Z,17.17
2019-05-06T06:54:22.911Z,16.13
2019-05-06T06:57:12.705Z,11.90
2019-05-06T06:59:48.300Z,9.17
2019-05-06T07:02:37.027Z,11.70
2019-05-06T07:05:27.626Z,11.73
2019-05-06T07:07:48.073Z,11.03
2019-05-06T07:10:35.100Z,8.50
2019-05-06T07:13:04.402Z,12.93
2019-05-06T07:15:33.879Z,8.63
2019-05-06T07:18:03.208Z,8.90
2019-05-06T07:20:36.521Z,8.73
2019-05-06T07:23:24.515Z,13.97
2019-05-06T07:25:54.579Z,11.20
2019-05-06T07:28:24.552Z,10.73
2019-05-06T07:30:54.301Z,11.97
2019-05-06T07:33:25.864Z,12.50
2019-05-06T07:35:55.061Z,10.63
2019-05-06T07:38:24.217Z,9.97
2019-05-06T07:41:04.177Z,8.17
2019-05-06T07:43:38.507Z,11.77
2019-05-06T07:46:16.004Z,13.47
2019-05-06T07:48:45.200Z,9.40
2019-05-06T07:51:14.513Z,10.87
2019-05-06T07:53:43.900Z,8.60
2019-05-06T07:56:13.148Z,7.83
2019-05-06T07:58:43.314Z,9.27
2019-05-06T08:01:13.623Z,12.30
2019-05-06T08:03:43.184Z,12.73
2019-05-06T08:06:13.189Z,10.47
2019-05-06T08:08:43.458Z,9.87
2019-05-06T08:11:12.810Z,9.23
2019-05-06T08:13:43.530Z,13.27
2019-05-06T08:16:13.299Z,13.93
2019-05-06T08:18:42.782Z,12.93
2019-05-06T08:21:22.341Z,11.93
2019-05-06T08:23:52.429Z,10.40
2019-05-06T08:26:22.490Z,9.57
2019-05-06T08:28:52.619Z,14.73
2019-05-06T08:31:22.984Z,11.20
2019-05-06T08:33:52.636Z,14.63
2019-05-06T08:36:43.191Z,9.20
2019-05-06T08:39:13.112Z,10.73
2019-05-06T08:41:43.337Z,12.00
2019-05-06T08:44:12.832Z,6.97
2019-05-06T08:46:43.336Z,9.83
2019-05-06T08:49:12.836Z,11.53
2019-05-06T08:51:53.069Z,13.30
2019-05-06T08:54:36.564Z,13.57
2019-05-06T08:57:05.742Z,13.13
2019-05-06T08:59:35.006Z,11.27
2019-05-06T09:02:04.863Z,14.27
2019-05-06T09:04:34.016Z,22.07
2019-05-06T09:07:03.173Z,13.80
2019-05-06T09:09:32.667Z,13.37
2019-05-06T09:12:02.637Z,14.40
2019-05-06T09:14:32.647Z,13.67
2019-05-06T09:17:02.843Z,11.33
2019-05-06T09:19:33.141Z,16.17
2019-05-06T09:22:02.699Z,16.70
2019-05-06T09:24:32.205Z,14.30
2019-05-06T09:27:22.490Z,11.03
2019-05-06T09:29:57.213Z,18.07
2019-05-06T09:32:35.900Z,18.43
2019-05-06T09:35:03.133Z,11.20
2019-05-06T09:37:32.681Z,9.60
2019-05-06T09:40:02.866Z,12.23
2019-05-06T09:42:32.286Z,15.23
2019-05-06T09:45:02.265Z,11.53
2019-05-06T09:47:56.423Z,11.10
2019-05-06T09:50:50.679Z,11.57
2019-05-06T09:53:30.443Z,8.60
2019-05-06T09:56:23.035Z,12.87
2019-05-06T09:58:53.032Z,14.30
2019-05-06T10:01:22.554Z,12.80
2019-05-06T10:03:52.939Z,13.93
2019-05-06T10:06:22.490Z,9.70
2019-05-06T10:08:51.736Z,11.47
2019-05-06T10:11:22.328Z,10.77
2019-05-06T10:13:52.454Z,7.30
2019-05-06T10:16:21.863Z,9.80
2019-05-06T10:18:52.416Z,5.33
2019-05-06T10:21:22.944Z,7.07
2019-05-06T10:23:52.835Z,13.80
2019-05-06T10:26:23.439Z,10.10
2019-05-06T10:29:02.461Z,7.97
2019-05-06T10:31:36.437Z,7.97
2019-05-06T10:34:13.987Z,10.00
2019-05-06T10:36:53.796Z,10.10
2019-05-06T10:39:25.907Z,10.10
2019-05-06T10:42:23.243Z,9.73
2019-05-06T10:45:03.037Z,13.57
2019-05-06T10:47:33.041Z,11.00
2019-05-06T10:50:02.368Z,8.47
2019-05-06T10:53:02.937Z,9.13
2019-05-06T10:55:32.617Z,5.57
2019-05-06T10:58:02.638Z,9.20
2019-05-06T11:00:33.175Z,10.80
2019-05-06T11:03:22.719Z,8.13
2019-05-06T11:05:53.408Z,8.37
2019-05-06T11:08:23.032Z,7.03
2019-05-06T11:10:53.512Z,10.33
2019-05-06T11:13:24.456Z,10.23
2019-05-06T11:15:55.627Z,6.30
2019-05-06T11:18:24.975Z,8.10
2019-05-06T11:20:56.192Z,6.43
2019-05-06T11:23:24.991Z,11.43
2019-05-06T11:25:54.146Z,6.70
2019-05-06T11:29:04.740Z,8.37
2019-05-06T11:31:55.890Z,9.37
2019-05-06T11:34:44.247Z,4.37
2019-05-06T11:37:43.814Z,6.90
2019-05-06T11:40:02.237Z,6.30
2019-05-06T11:42:35.549Z,6.90
2019-05-06T11:45:03.134Z,4.43
2019-05-06T11:47:32.768Z,7.13
2019-05-06T11:50:02.476Z,6.20
2019-05-06T11:52:34.683Z,5.83
2019-05-06T11:55:03.863Z,7.10
2019-05-06T11:57:33.000Z,6.83
2019-05-06T12:00:03.101Z,4.70
2019-05-06T12:02:33.050Z,6.13
2019-05-06T12:05:02.525Z,7.00
2019-05-06T12:07:33.249Z,5.43
2019-05-06T12:10:02.683Z,6.50
2019-05-06T12:12:31.872Z,6.10
2019-05-06T12:15:03.472Z,9.73
2019-05-06T12:17:32.034Z,4.47
2019-05-06T12:20:02.913Z,5.50
2019-05-06T12:22:38.022Z,6.83
2019-05-06T12:25:12.668Z,4.47
2019-05-06T12:27:44.469Z,7.13
2019-05-06T12:30:19.333Z,5.13
2019-05-06T12:33:00.170Z,3.97
2019-05-06T12:35:29.371Z,2.93
2019-05-06T12:38:05.205Z,8.30
2019-05-06T12:40:32.089Z,6.97
2019-05-06T12:43:18.791Z,7.20
2019-05-06T12:45:49.863Z,6.93
2019-05-06T12:48:22.923Z,5.27
2019-05-06T12:50:52.599Z,4.87
2019-05-06T12:53:23.173Z,7.97
2019-05-06T12:55:52.465Z,6.93
2019-05-06T12:58:23.374Z,6.53
2019-05-06T13:00:54.269Z,6.10
2019-05-06T13:03:23.625Z,6.67
2019-05-06T13:05:52.953Z,6.97
2019-05-06T13:08:27.557Z,6.73
2019-05-06T13:10:53.113Z,9.40
2019-05-06T13:13:22.595Z,4.10
2019-05-06T13:15:52.824Z,6.63
2019-05-06T13:18:23.220Z,6.93
2019-05-06T13:20:52.981Z,6.80
2019-05-06T13:23:41.241Z,4.37
2019-05-06T13:26:12.689Z,7.33
2019-05-06T13:28:44.924Z,8.30
2019-05-06T13:31:20.615Z,9.40
2019-05-06T13:34:02.997Z,7.40
2019-05-06T13:36:33.344Z,10.57
2019-05-06T13:39:14.068Z,7.57
2019-05-06T13:41:33.878Z,8.80
2019-05-06T13:44:13.966Z,4.77
2019-05-06T13:46:46.726Z,3.67
2019-05-06T13:49:42.843Z,7.10
2019-05-06T13:52:12.978Z,4.00
2019-05-06T13:54:42.478Z,5.50
2019-05-06T13:57:12.674Z,5.90
2019-05-06T13:59:44.125Z,4.47
2019-05-06T14:02:33.513Z,5.47
2019-05-06T14:05:02.962Z,8.13
2019-05-06T14:07:34.478Z,6.87
2019-05-06T14:10:03.474Z,5.77
2019-05-06T14:12:33.331Z,6.07
2019-05-06T14:15:04.322Z,4.97
2019-05-06T14:17:33.977Z,5.57
2019-05-06T14:20:03.210Z,3.80
2019-05-06T14:22:32.797Z,8.57
2019-05-06T14:25:19.547Z,5.07
2019-05-06T14:27:52.667Z,5.30
2019-05-06T14:30:39.523Z,5.60
2019-05-06T14:33:12.727Z,7.27
2019-05-06T14:35:42.990Z,6.33
2019-05-06T14:38:13.501Z,6.13
2019-05-06T14:41:07.074Z,9.37
2019-05-06T14:43:42.810Z,5.70
2019-05-06T14:46:11.952Z,4.33
2019-05-06T14:48:42.998Z,4.40
2019-05-06T14:51:12.998Z,6.80
2019-05-06T14:53:43.603Z,3.60
2019-05-06T14:56:38.295Z,6.63
2019-05-06T14:59:08.000Z,5.47
2019-05-06T15:01:38.937Z,5.53
2019-05-06T15:04:08.218Z,5.30
2019-05-06T15:06:37.633Z,6.93
2019-05-06T15:09:13.109Z,7.37
2019-05-06T15:11:43.349Z,8.03
2019-05-06T15:14:13.232Z,4.20
2019-05-06T15:16:42.582Z,9.07
2019-05-06T15:19:12.905Z,5.03
2019-05-06T15:21:42.853Z,5.83
2019-05-06T15:24:13.823Z,3.97
2019-05-06T15:26:43.302Z,4.30
2019-05-06T15:29:12.785Z,5.43
2019-05-06T15:39:08.872Z,3.30
2019-05-06T15:41:38.125Z,7.50
2019-05-06T15:44:07.499Z,3.47
2019-05-06T15:46:36.816Z,4.17
2019-05-06T15:49:05.989Z,5.10
2019-05-06T15:51:35.170Z,5.90
2019-05-06T15:54:05.733Z,3.30
2019-05-06T15:56:34.977Z,5.40
2019-05-06T15:59:04.661Z,5.73
2019-05-06T16:01:34.366Z,3.30
2019-05-06T16:04:03.542Z,4.00
2019-05-06T16:06:33.262Z,5.30
2019-05-06T16:09:03.594Z,6.77
2019-05-06T16:11:33.419Z,4.17
2019-05-06T16:14:03.049Z,12.67
2019-05-06T16:16:33.249Z,6.80
2019-05-06T16:19:04.103Z,5.90
2019-05-06T16:21:33.631Z,4.47
2019-05-06T16:24:14.166Z,4.57
2019-05-06T16:26:45.694Z,3.73
2019-05-06T16:29:14.384Z,5.60
2019-05-06T16:31:43.681Z,3.43
2019-05-06T16:34:14.725Z,4.17
2019-05-06T16:36:44.046Z,3.73
2019-05-06T16:39:13.325Z,5.23
2019-05-06T16:41:44.718Z,8.47
2019-05-06T16:44:13.855Z,5.13
2019-05-06T16:46:43.131Z,3.00
2019-05-06T16:49:14.184Z,3.70
2019-05-06T16:51:44.200Z,4.60
2019-05-06T16:54:15.216Z,8.10
2019-05-06T16:56:52.773Z,3.70
2019-05-06T16:59:23.760Z,4.47
2019-05-06T17:01:52.827Z,3.07
2019-05-06T17:04:32.863Z,5.57
2019-05-06T17:07:03.101Z,8.30
2019-05-06T17:09:33.214Z,2.67
2019-05-06T17:12:04.697Z,3.37
2019-05-06T17:14:33.641Z,2.60
2019-05-06T17:17:03.361Z,3.37
2019-05-06T17:19:33.032Z,3.20
2019-05-06T17:22:03.027Z,3.67
2019-05-06T17:24:33.074Z,4.23
2019-05-06T17:27:02.844Z,6.90
2019-05-06T17:30:06.289Z,6.00
2019-05-06T17:32:38.107Z,5.63
2019-05-06T17:35:08.199Z,3.07
2019-05-06T17:38:14.659Z,4.97
2019-05-06T17:40:44.028Z,4.27
2019-05-06T17:43:13.284Z,4.37
2019-05-06T17:46:03.977Z,4.97
2019-05-06T17:48:37.324Z,4.40
2019-05-06T17:51:14.448Z,6.17
2019-05-06T17:53:46.847Z,7.20
2019-05-06T17:56:16.151Z,3.77
2019-05-06T17:58:45.405Z,3.30
2019-05-06T18:01:17.146Z,3.10
2019-05-06T18:03:46.342Z,4.73
2019-05-06T18:06:15.624Z,6.63
2019-05-06T18:08:44.866Z,5.50
2019-05-06T18:11:14.123Z,6.43
2019-05-06T18:13:43.264Z,8.23
2019-05-06T18:16:14.391Z,3.87
2019-05-06T18:18:43.607Z,6.10
2019-05-06T18:21:12.918Z,6.67
2019-05-06T18:23:42.417Z,4.47
2019-05-06T18:26:11.685Z,6.30
2019-05-06T18:28:43.067Z,5.33
2019-05-06T18:31:12.557Z,6.27
2019-05-06T18:33:43.155Z,6.63
2019-05-06T18:36:13.043Z,6.40
2019-05-06T18:38:42.508Z,5.50
2019-05-06T18:41:12.099Z,6.10
2019-05-06T18:43:42.303Z,4.03
2019-05-06T18:46:12.318Z,5.93
2019-05-06T18:48:42.715Z,4.47
2019-05-06T18:51:12.662Z,6.47
2019-05-06T18:53:42.304Z,6.17
2019-05-06T18:56:12.644Z,5.97
2019-05-06T18:58:42.893Z,8.97
2019-05-06T19:01:13.255Z,8.27
2019-05-06T19:03:49.131Z,8.83
2019-05-06T19:06:18.364Z,7.23
2019-05-06T19:08:53.401Z,9.87
2019-05-06T19:11:22.677Z,6.97
2019-05-06T19:13:52.661Z,6.40
2019-05-06T19:16:22.372Z,10.17
2019-05-06T19:18:52.383Z,6.17
2019-05-06T19:21:24.301Z,7.77
2019-05-06T19:23:54.812Z,7.90
2019-05-06T19:26:23.744Z,9.07
2019-05-06T19:28:53.020Z,10.13
2019-05-06T19:31:22.925Z,7.93
2019-05-06T19:33:52.727Z,9.47
2019-05-06T19:36:23.471Z,7.47
2019-05-06T19:38:52.907Z,5.20
2019-05-06T19:41:22.413Z,8.43
2019-05-06T19:43:52.467Z,8.10
2019-05-06T19:46:21.670Z,5.07
2019-05-06T19:48:52.404Z,5.00
2019-05-06T19:51:22.583Z,5.73
2019-05-06T19:53:51.956Z,5.00
2019-05-06T19:56:23.186Z,6.80
2019-05-06T19:58:52.662Z,7.40
2019-05-06T20:01:22.898Z,7.60
2019-05-06T20:03:52.607Z,6.00
2019-05-06T20:06:37.618Z,5.57
2019-05-06T20:09:39.311Z,5.20
2019-05-06T20:12:13.525Z,5.27
2019-05-06T20:14:42.738Z,5.83
2019-05-06T20:17:12.894Z,12.17
2019-05-06T20:19:42.680Z,14.27
2019-05-06T20:22:12.993Z,22.03
2019-05-06T20:24:42.617Z,12.43
2019-05-06T20:27:13.311Z,10.30
2019-05-06T20:29:42.869Z,15.10
2019-05-06T20:32:12.302Z,9.13
2019-05-06T20:34:42.895Z,11.53
2019-05-06T20:37:12.880Z,11.10
2019-05-06T20:39:43.320Z,8.50
2019-05-06T20:42:12.952Z,6.33
2019-05-06T20:44:43.316Z,8.57
2019-05-06T20:47:13.235Z,6.80
2019-05-06T20:49:43.173Z,5.40
2019-05-06T20:52:12.496Z,5.57
2019-05-06T20:54:42.711Z,8.53
2019-05-06T20:57:12.417Z,8.47
2019-05-06T20:59:42.100Z,14.83
2019-05-06T21:02:12.483Z,6.30
2019-05-06T21:04:43.113Z,5.80
2019-05-06T21:07:12.596Z,8.03
2019-05-06T21:09:43.170Z,9.73
2019-05-06T21:12:12.546Z,8.60
2019-05-06T21:14:42.185Z,7.80
2019-05-06T21:17:12.374Z,11.30
2019-05-06T21:19:41.818Z,5.43
2019-05-06T21:22:13.095Z,6.13
2019-05-06T21:24:43.078Z,10.27
2019-05-06T21:27:12.514Z,7.83
2019-05-06T21:29:42.096Z,7.27
2019-05-06T21:32:11.443Z,10.73
2019-05-06T21:34:43.102Z,8.63
2019-05-06T21:37:12.247Z,11.17
2019-05-06T21:39:42.400Z,7.97
2019-05-06T21:42:12.254Z,8.83
2019-05-06T21:44:42.905Z,7.03
2019-05-06T21:47:12.084Z,9.47
2019-05-06T21:49:42.172Z,6.00
2019-05-06T21:52:13.130Z,8.57
2019-05-06T21:54:43.411Z,7.53
2019-05-06T21:57:15.805Z,12.40
2019-05-06T21:59:46.028Z,13.33
2019-05-06T22:02:16.917Z,10.30
2019-05-06T22:04:46.070Z,13.87
2019-05-06T22:07:15.316Z,15.80
2019-05-06T22:09:44.506Z,16.40
2019-05-06T22:12:13.659Z,16.87
2019-05-06T22:14:42.932Z,13.17
2019-05-06T22:17:14.161Z,11.37
2019-05-06T22:19:42.937Z,13.40
2019-05-06T22:22:14.654Z,27.93
2019-05-06T22:24:48.447Z,12.77
2019-05-06T22:27:18.537Z,18.67
2019-05-06T22:29:47.806Z,15.77
2019-05-06T22:32:17.067Z,14.47
2019-05-06T22:34:46.297Z,17.17
2019-05-06T22:37:15.517Z,17.83
2019-05-06T22:39:44.801Z,15.33
2019-05-06T22:42:13.926Z,12.43
2019-05-06T22:44:43.389Z,18.10
2019-05-06T22:47:12.515Z,8.50
2019-05-06T22:49:41.643Z,8.80
2019-05-06T22:52:12.603Z,12.57
2019-05-06T22:54:43.351Z,10.40
2019-05-06T22:57:12.626Z,14.57
2019-05-06T22:59:42.774Z,9.70
2019-05-06T23:02:19.944Z,7.80
2019-05-06T23:04:53.064Z,11.90
2019-05-06T23:07:22.566Z,9.83
2019-05-06T23:09:52.169Z,11.27
2019-05-06T23:12:23.153Z,12.57
2019-05-06T23:14:53.051Z,11.63
2019-05-06T23:17:22.141Z,13.53
2019-05-06T23:19:52.773Z,14.07
2019-05-06T23:22:22.755Z,19.60
2019-05-06T23:24:54.086Z,20.80
2019-05-06T23:27:23.364Z,28.47
2019-05-06T23:29:52.734Z,16.50
2019-05-06T23:32:22.958Z,14.90
2019-05-06T23:34:52.497Z,8.23
2019-05-06T23:37:23.006Z,7.97
2019-05-06T23:40:33.163Z,9.83
2019-05-06T23:43:37.767Z,8.97
2019-05-06T23:46:42.885Z,6.00
2019-05-06T23:49:47.632Z,6.63
2019-05-06T23:52:52.149Z,6.27
2019-05-06T23:55:56.955Z,6.20
2019-05-06T23:58:24.476Z,6.37
